sensor_id;sensor_type;location;lat;lon;timestamp;P1;durP1;ratioP1;P2;durP2;ratioP2
22388;SDS011;11362;48.102;11.620;2023-04-03T00:00:00;3.00;;;2.70;;
22388;SDS011;11362;48.102;11.620;2023-04-03T00:02:26;3.80;;;2.33;;
22388;SDS011;11362;48.102;11.620;2023-04-03T00:04:51;4.10;;;2.57;;
22388;SDS011;11362;48.102;11.620;2023-04-03T00:07:16;2.40;;;2.20;;
22388;SDS011;11362;48.102;11.620;2023-04-03T00:09:41;4.60;;;2.83;;
22388;SDS011;11362;48.102;11.620;2023-04-03T00:12:07;2.80;;;2.60;;
22388;SDS011;11362;48.102;11.620;2023-04-03T00:14:32;5.63;;;2.77;;
22388;SDS011;11362;48.102;11.620;2023-04-03T00:16:57;3.63;;;2.70;;
22388;SDS011;11362;48.102;11.620;2023-04-03T00:19:23;3.70;;;2.70;;
22388;SDS011;11362;48.102;11.620;2023-04-03T00:21:48;2.60;;;2.40;;
22388;SDS011;11362;48.102;11.620;2023-04-03T00:24:13;4.50;;;2.90;;
22388;SDS011;11362;48.102;11.620;2023-04-03T00:26:38;4.37;;;2.70;;
22388;SDS011;11362;48.102;11.620;2023-04-03T00:29:04;3.70;;;2.33;;
22388;SDS011;11362;48.102;11.620;2023-04-03T00:31:29;3.73;;;2.50;;
22388;SDS011;11362;48.102;11.620;2023-04-03T00:33:54;3.03;;;2.40;;
22388;SDS011;11362;48.102;11.620;2023-04-03T00:36:20;4.20;;;2.10;;
22388;SDS011;11362;48.102;11.620;2023-04-03T00:38:45;3.20;;;2.87;;
22388;SDS011;11362;48.102;11.620;2023-04-03T00:41:10;3.00;;;1.90;;
22388;SDS011;11362;48.102;11.620;2023-04-03T00:43:36;2.37;;;2.10;;
22388;SDS011;11362;48.102;11.620;2023-04-03T00:46:01;2.63;;;2.23;;
22388;SDS011;11362;48.102;11.620;2023-04-03T00:48:40;2.30;;;2.20;;
22388;SDS011;11362;48.102;11.620;2023-04-03T00:51:08;3.43;;;2.47;;
22388;SDS011;11362;48.102;11.620;2023-04-03T00:53:41;3.37;;;2.00;;
22388;SDS011;11362;48.102;11.620;2023-04-03T00:56:12;3.07;;;2.20;;
22388;SDS011;11362;48.102;11.620;2023-04-03T00:58:41;2.73;;;2.10;;
22388;SDS011;11362;48.102;11.620;2023-04-03T01:01:12;2.20;;;2.10;;
22388;SDS011;11362;48.102;11.620;2023-04-03T01:03:41;2.67;;;2.13;;
22388;SDS011;11362;48.102;11.620;2023-04-03T01:06:07;2.37;;;2.17;;
22388;SDS011;11362;48.102;11.620;2023-04-03T01:08:32;3.03;;;2.33;;
22388;SDS011;11362;48.102;11.620;2023-04-03T01:10:57;3.30;;;2.13;;
22388;SDS011;11362;48.102;11.620;2023-04-03T01:13:31;2.57;;;2.17;;
22388;SDS011;11362;48.102;11.620;2023-04-03T01:16:00;2.50;;;2.30;;
22388;SDS011;11362;48.102;11.620;2023-04-03T01:18:26;2.07;;;1.97;;
22388;SDS011;11362;48.102;11.620;2023-04-03T01:23:25;3.83;;;2.20;;
22388;SDS011;11362;48.102;11.620;2023-04-03T01:25:57;2.03;;;1.73;;
22388;SDS011;11362;48.102;11.620;2023-04-03T01:28:27;2.47;;;2.30;;
22388;SDS011;11362;48.102;11.620;2023-04-03T01:33:54;2.27;;;2.07;;
22388;SDS011;11362;48.102;11.620;2023-04-03T01:36:21;2.00;;;1.90;;
22388;SDS011;11362;48.102;11.620;2023-04-03T01:38:48;2.20;;;2.00;;
22388;SDS011;11362;48.102;11.620;2023-04-03T01:41:14;2.20;;;2.10;;
22388;SDS011;11362;48.102;11.620;2023-04-03T01:43:39;2.80;;;2.13;;
22388;SDS011;11362;48.102;11.620;2023-04-03T01:46:04;1.90;;;1.80;;
22388;SDS011;11362;48.102;11.620;2023-04-03T01:48:30;2.07;;;1.97;;
22388;SDS011;11362;48.102;11.620;2023-04-03T01:50:55;1.93;;;1.83;;
22388;SDS011;11362;48.102;11.620;2023-04-03T01:53:20;2.30;;;2.10;;
22388;SDS011;11362;48.102;11.620;2023-04-03T01:55:46;1.90;;;1.80;;
22388;SDS011;11362;48.102;11.620;2023-04-03T01:58:11;2.10;;;1.90;;
22388;SDS011;11362;48.102;11.620;2023-04-03T02:00:36;2.30;;;1.83;;
22388;SDS011;11362;48.102;11.620;2023-04-03T02:03:02;1.90;;;1.80;;
22388;SDS011;11362;48.102;11.620;2023-04-03T02:05:28;1.60;;;1.50;;
22388;SDS011;11362;48.102;11.620;2023-04-03T02:07:53;2.30;;;2.07;;
22388;SDS011;11362;48.102;11.620;2023-04-03T02:10:18;1.90;;;1.90;;
22388;SDS011;11362;48.102;11.620;2023-04-03T02:12:44;1.90;;;1.80;;
22388;SDS011;11362;48.102;11.620;2023-04-03T02:15:09;2.07;;;1.97;;
22388;SDS011;11362;48.102;11.620;2023-04-03T02:17:34;1.83;;;1.73;;
22388;SDS011;11362;48.102;11.620;2023-04-03T02:20:00;2.20;;;2.00;;
22388;SDS011;11362;48.102;11.620;2023-04-03T02:22:26;1.90;;;1.80;;
22388;SDS011;11362;48.102;11.620;2023-04-03T02:24:51;1.87;;;1.77;;
22388;SDS011;11362;48.102;11.620;2023-04-03T02:27:16;1.90;;;1.80;;
22388;SDS011;11362;48.102;11.620;2023-04-03T02:29:42;1.80;;;1.70;;
22388;SDS011;11362;48.102;11.620;2023-04-03T02:32:07;1.70;;;1.60;;
22388;SDS011;11362;48.102;11.620;2023-04-03T02:34:33;1.90;;;1.80;;
22388;SDS011;11362;48.102;11.620;2023-04-03T02:36:58;1.30;;;1.20;;
22388;SDS011;11362;48.102;11.620;2023-04-03T02:39:23;2.00;;;1.90;;
22388;SDS011;11362;48.102;11.620;2023-04-03T02:41:48;1.80;;;1.70;;
22388;SDS011;11362;48.102;11.620;2023-04-03T02:44:14;2.00;;;1.90;;
22388;SDS011;11362;48.102;11.620;2023-04-03T02:46:39;2.07;;;1.93;;
22388;SDS011;11362;48.102;11.620;2023-04-03T02:49:04;2.00;;;1.90;;
22388;SDS011;11362;48.102;11.620;2023-04-03T02:51:30;1.90;;;1.80;;
22388;SDS011;11362;48.102;11.620;2023-04-03T02:53:55;1.47;;;1.37;;
22388;SDS011;11362;48.102;11.620;2023-04-03T02:56:21;1.43;;;1.33;;
22388;SDS011;11362;48.102;11.620;2023-04-03T02:58:46;1.83;;;1.73;;
22388;SDS011;11362;48.102;11.620;2023-04-03T03:01:12;1.90;;;1.80;;
22388;SDS011;11362;48.102;11.620;2023-04-03T03:03:39;1.40;;;1.40;;
22388;SDS011;11362;48.102;11.620;2023-04-03T03:06:06;1.73;;;1.67;;
22388;SDS011;11362;48.102;11.620;2023-04-03T03:08:33;1.67;;;1.57;;
22388;SDS011;11362;48.102;11.620;2023-04-03T03:10:59;1.60;;;1.47;;
22388;SDS011;11362;48.102;11.620;2023-04-03T03:13:24;1.93;;;1.83;;
22388;SDS011;11362;48.102;11.620;2023-04-03T03:15:50;1.70;;;1.60;;
22388;SDS011;11362;48.102;11.620;2023-04-03T03:18:16;1.53;;;1.43;;
22388;SDS011;11362;48.102;11.620;2023-04-03T03:20:41;1.83;;;1.73;;
22388;SDS011;11362;48.102;11.620;2023-04-03T03:23:07;2.93;;;1.70;;
22388;SDS011;11362;48.102;11.620;2023-04-03T03:25:32;1.67;;;1.50;;
22388;SDS011;11362;48.102;11.620;2023-04-03T03:27:57;2.17;;;1.60;;
22388;SDS011;11362;48.102;11.620;2023-04-03T03:30:23;1.50;;;1.40;;
22388;SDS011;11362;48.102;11.620;2023-04-03T03:32:48;1.70;;;1.60;;
22388;SDS011;11362;48.102;11.620;2023-04-03T03:35:14;1.53;;;1.53;;
22388;SDS011;11362;48.102;11.620;2023-04-03T03:37:39;1.33;;;1.23;;
22388;SDS011;11362;48.102;11.620;2023-04-03T03:40:05;1.87;;;1.73;;
22388;SDS011;11362;48.102;11.620;2023-04-03T03:42:30;1.50;;;1.40;;
22388;SDS011;11362;48.102;11.620;2023-04-03T03:44:56;1.40;;;1.30;;
22388;SDS011;11362;48.102;11.620;2023-04-03T03:47:21;1.50;;;1.40;;
22388;SDS011;11362;48.102;11.620;2023-04-03T03:49:46;1.53;;;1.43;;
22388;SDS011;11362;48.102;11.620;2023-04-03T03:52:11;1.37;;;1.27;;
22388;SDS011;11362;48.102;11.620;2023-04-03T03:54:37;1.30;;;1.20;;
22388;SDS011;11362;48.102;11.620;2023-04-03T03:57:02;1.30;;;1.30;;
22388;SDS011;11362;48.102;11.620;2023-04-03T03:59:28;1.43;;;1.43;;
22388;SDS011;11362;48.102;11.620;2023-04-03T04:01:53;1.60;;;1.50;;
22388;SDS011;11362;48.102;11.620;2023-04-03T04:04:18;1.00;;;1.00;;
22388;SDS011;11362;48.102;11.620;2023-04-03T04:06:44;1.37;;;1.37;;
22388;SDS011;11362;48.102;11.620;2023-04-03T04:09:09;1.30;;;1.30;;
22388;SDS011;11362;48.102;11.620;2023-04-03T04:11:34;1.30;;;1.30;;
22388;SDS011;11362;48.102;11.620;2023-04-03T04:14:00;1.40;;;1.30;;
22388;SDS011;11362;48.102;11.620;2023-04-03T04:16:28;1.43;;;1.33;;
22388;SDS011;11362;48.102;11.620;2023-04-03T04:18:53;1.17;;;1.17;;
22388;SDS011;11362;48.102;11.620;2023-04-03T04:21:18;1.40;;;1.40;;
22388;SDS011;11362;48.102;11.620;2023-04-03T04:23:43;1.00;;;1.00;;
22388;SDS011;11362;48.102;11.620;2023-04-03T04:26:09;1.47;;;1.43;;
22388;SDS011;11362;48.102;11.620;2023-04-03T04:28:34;1.50;;;1.40;;
22388;SDS011;11362;48.102;11.620;2023-04-03T04:30:59;1.37;;;1.27;;
22388;SDS011;11362;48.102;11.620;2023-04-03T04:33:25;1.20;;;1.20;;
22388;SDS011;11362;48.102;11.620;2023-04-03T04:35:50;1.03;;;1.03;;
22388;SDS011;11362;48.102;11.620;2023-04-03T04:38:15;1.33;;;1.20;;
22388;SDS011;11362;48.102;11.620;2023-04-03T04:40:40;1.57;;;1.50;;
22388;SDS011;11362;48.102;11.620;2023-04-03T04:43:06;1.00;;;1.00;;
22388;SDS011;11362;48.102;11.620;2023-04-03T04:45:31;1.17;;;1.13;;
22388;SDS011;11362;48.102;11.620;2023-04-03T04:47:56;1.30;;;1.30;;
22388;SDS011;11362;48.102;11.620;2023-04-03T04:50:22;1.30;;;1.30;;
22388;SDS011;11362;48.102;11.620;2023-04-03T04:52:47;1.10;;;1.10;;
22388;SDS011;11362;48.102;11.620;2023-04-03T04:55:12;1.00;;;1.00;;
22388;SDS011;11362;48.102;11.620;2023-04-03T04:57:37;1.30;;;1.30;;
22388;SDS011;11362;48.102;11.620;2023-04-03T05:00:03;1.40;;;1.30;;
22388;SDS011;11362;48.102;11.620;2023-04-03T05:02:29;1.27;;;1.17;;
22388;SDS011;11362;48.102;11.620;2023-04-03T05:04:54;1.40;;;1.30;;
22388;SDS011;11362;48.102;11.620;2023-04-03T05:07:19;1.17;;;1.17;;
22388;SDS011;11362;48.102;11.620;2023-04-03T05:09:45;1.13;;;1.13;;
22388;SDS011;11362;48.102;11.620;2023-04-03T05:12:10;1.13;;;1.13;;
22388;SDS011;11362;48.102;11.620;2023-04-03T05:14:35;1.07;;;1.03;;
22388;SDS011;11362;48.102;11.620;2023-04-03T05:17:00;1.00;;;1.00;;
22388;SDS011;11362;48.102;11.620;2023-04-03T05:19:26;1.70;;;1.63;;
22388;SDS011;11362;48.102;11.620;2023-04-03T05:21:51;1.40;;;1.30;;
22388;SDS011;11362;48.102;11.620;2023-04-03T05:24:16;7.10;;;1.87;;
22388;SDS011;11362;48.102;11.620;2023-04-03T05:26:42;7.90;;;1.73;;
22388;SDS011;11362;48.102;11.620;2023-04-03T05:29:08;5.53;;;1.90;;
22388;SDS011;11362;48.102;11.620;2023-04-03T05:31:34;18.57;;;2.40;;
22388;SDS011;11362;48.102;11.620;2023-04-03T05:33:59;14.70;;;2.37;;
22388;SDS011;11362;48.102;11.620;2023-04-03T05:36:25;14.57;;;2.57;;
22388;SDS011;11362;48.102;11.620;2023-04-03T05:38:50;8.30;;;2.37;;
22388;SDS011;11362;48.102;11.620;2023-04-03T05:41:16;14.00;;;2.30;;
22388;SDS011;11362;48.102;11.620;2023-04-03T05:43:41;10.17;;;2.50;;
22388;SDS011;11362;48.102;11.620;2023-04-03T05:46:09;10.93;;;2.77;;
22388;SDS011;11362;48.102;11.620;2023-04-03T05:48:36;8.83;;;2.77;;
22388;SDS011;11362;48.102;11.620;2023-04-03T05:51:01;8.97;;;1.93;;
22388;SDS011;11362;48.102;11.620;2023-04-03T05:53:27;4.10;;;2.07;;
22388;SDS011;11362;48.102;11.620;2023-04-03T05:55:54;10.83;;;2.23;;
22388;SDS011;11362;48.102;11.620;2023-04-03T05:58:19;8.27;;;2.10;;
22388;SDS011;11362;48.102;11.620;2023-04-03T06:00:45;11.33;;;2.33;;
22388;SDS011;11362;48.102;11.620;2023-04-03T06:03:10;16.17;;;2.80;;
22388;SDS011;11362;48.102;11.620;2023-04-03T06:05:37;8.10;;;2.10;;
22388;SDS011;11362;48.102;11.620;2023-04-03T06:08:02;10.80;;;2.13;;
22388;SDS011;11362;48.102;11.620;2023-04-03T06:10:28;8.47;;;1.97;;
22388;SDS011;11362;48.102;11.620;2023-04-03T06:12:53;8.10;;;2.80;;
22388;SDS011;11362;48.102;11.620;2023-04-03T06:15:18;13.03;;;2.50;;
22388;SDS011;11362;48.102;11.620;2023-04-03T06:17:44;7.40;;;2.50;;
22388;SDS011;11362;48.102;11.620;2023-04-03T06:20:09;14.33;;;2.50;;
22388;SDS011;11362;48.102;11.620;2023-04-03T06:22:35;7.77;;;2.80;;
22388;SDS011;11362;48.102;11.620;2023-04-03T06:25:01;9.47;;;1.80;;
22388;SDS011;11362;48.102;11.620;2023-04-03T06:27:27;3.63;;;2.37;;
22388;SDS011;11362;48.102;11.620;2023-04-03T06:29:53;7.27;;;2.17;;
22388;SDS011;11362;48.102;11.620;2023-04-03T06:32:18;8.00;;;2.30;;
22388;SDS011;11362;48.102;11.620;2023-04-03T06:34:44;11.37;;;2.47;;
22388;SDS011;11362;48.102;11.620;2023-04-03T06:37:14;10.03;;;2.50;;
22388;SDS011;11362;48.102;11.620;2023-04-03T06:39:44;8.40;;;2.20;;
22388;SDS011;11362;48.102;11.620;2023-04-03T06:42:09;10.80;;;2.70;;
22388;SDS011;11362;48.102;11.620;2023-04-03T06:44:35;12.37;;;2.70;;
22388;SDS011;11362;48.102;11.620;2023-04-03T06:47:01;7.67;;;2.20;;
22388;SDS011;11362;48.102;11.620;2023-04-03T06:49:27;7.90;;;2.03;;
22388;SDS011;11362;48.102;11.620;2023-04-03T06:51:52;5.40;;;2.27;;
22388;SDS011;11362;48.102;11.620;2023-04-03T06:54:18;4.80;;;2.20;;
22388;SDS011;11362;48.102;11.620;2023-04-03T06:56:43;11.97;;;2.50;;
22388;SDS011;11362;48.102;11.620;2023-04-03T06:59:09;9.27;;;2.07;;
22388;SDS011;11362;48.102;11.620;2023-04-03T07:01:37;4.70;;;2.00;;
22388;SDS011;11362;48.102;11.620;2023-04-03T07:04:02;5.40;;;2.37;;
22388;SDS011;11362;48.102;11.620;2023-04-03T07:06:28;7.33;;;2.40;;
22388;SDS011;11362;48.102;11.620;2023-04-03T07:08:53;7.97;;;2.43;;
22388;SDS011;11362;48.102;11.620;2023-04-03T07:11:19;11.13;;;2.27;;
22388;SDS011;11362;48.102;11.620;2023-04-03T07:13:44;7.17;;;1.70;;
22388;SDS011;11362;48.102;11.620;2023-04-03T07:16:10;7.53;;;1.90;;
22388;SDS011;11362;48.102;11.620;2023-04-03T07:18:35;2.83;;;1.83;;
22388;SDS011;11362;48.102;11.620;2023-04-03T07:21:01;7.40;;;2.10;;
22388;SDS011;11362;48.102;11.620;2023-04-03T07:23:28;9.53;;;2.27;;
22388;SDS011;11362;48.102;11.620;2023-04-03T07:25:54;5.70;;;2.47;;
22388;SDS011;11362;48.102;11.620;2023-04-03T07:28:20;4.87;;;1.77;;
22388;SDS011;11362;48.102;11.620;2023-04-03T07:30:46;8.00;;;2.00;;
22388;SDS011;11362;48.102;11.620;2023-04-03T07:33:14;8.77;;;2.17;;
22388;SDS011;11362;48.102;11.620;2023-04-03T07:35:41;3.77;;;1.97;;
22388;SDS011;11362;48.102;11.620;2023-04-03T07:38:08;5.67;;;1.93;;
22388;SDS011;11362;48.102;11.620;2023-04-03T07:40:34;4.37;;;2.00;;
22388;SDS011;11362;48.102;11.620;2023-04-03T07:43:00;6.07;;;1.77;;
22388;SDS011;11362;48.102;11.620;2023-04-03T07:45:26;3.63;;;1.80;;
22388;SDS011;11362;48.102;11.620;2023-04-03T07:47:52;6.70;;;2.20;;
22388;SDS011;11362;48.102;11.620;2023-04-03T07:50:17;6.67;;;1.90;;
22388;SDS011;11362;48.102;11.620;2023-04-03T07:52:45;4.47;;;1.53;;
22388;SDS011;11362;48.102;11.620;2023-04-03T07:55:11;6.20;;;1.67;;
22388;SDS011;11362;48.102;11.620;2023-04-03T07:57:37;5.27;;;1.70;;
22388;SDS011;11362;48.102;11.620;2023-04-03T08:00:03;4.77;;;2.00;;
22388;SDS011;11362;48.102;11.620;2023-04-03T08:02:29;5.40;;;2.00;;
22388;SDS011;11362;48.102;11.620;2023-04-03T08:04:54;5.83;;;2.00;;
22388;SDS011;11362;48.102;11.620;2023-04-03T08:07:19;4.90;;;1.93;;
22388;SDS011;11362;48.102;11.620;2023-04-03T08:09:45;4.13;;;1.83;;
22388;SDS011;11362;48.102;11.620;2023-04-03T08:12:10;3.83;;;2.50;;
22388;SDS011;11362;48.102;11.620;2023-04-03T08:14:36;5.13;;;2.13;;
22388;SDS011;11362;48.102;11.620;2023-04-03T08:17:02;20.07;;;1.63;;
22388;SDS011;11362;48.102;11.620;2023-04-03T08:19:28;5.23;;;1.90;;
22388;SDS011;11362;48.102;11.620;2023-04-03T08:21:54;3.57;;;1.87;;
22388;SDS011;11362;48.102;11.620;2023-04-03T08:24:19;4.73;;;1.90;;
22388;SDS011;11362;48.102;11.620;2023-04-03T08:26:44;2.70;;;2.00;;
22388;SDS011;11362;48.102;11.620;2023-04-03T08:29:10;1.67;;;1.47;;
22388;SDS011;11362;48.102;11.620;2023-04-03T08:31:35;3.20;;;1.60;;
22388;SDS011;11362;48.102;11.620;2023-04-03T08:34:01;5.40;;;1.80;;
22388;SDS011;11362;48.102;11.620;2023-04-03T08:36:27;4.20;;;1.77;;
22388;SDS011;11362;48.102;11.620;2023-04-03T08:38:55;3.67;;;1.60;;
22388;SDS011;11362;48.102;11.620;2023-04-03T08:43:58;3.20;;;2.03;;
22388;SDS011;11362;48.102;11.620;2023-04-03T08:46:47;3.60;;;1.37;;
22388;SDS011;11362;48.102;11.620;2023-04-03T08:49:21;2.03;;;1.70;;
22388;SDS011;11362;48.102;11.620;2023-04-03T08:51:50;3.50;;;1.50;;
22388;SDS011;11362;48.102;11.620;2023-04-03T08:54:21;2.60;;;1.57;;
22388;SDS011;11362;48.102;11.620;2023-04-03T08:56:53;4.53;;;1.63;;
22388;SDS011;11362;48.102;11.620;2023-04-03T08:59:20;2.60;;;1.30;;
22388;SDS011;11362;48.102;11.620;2023-04-03T09:01:51;1.53;;;1.43;;
22388;SDS011;11362;48.102;11.620;2023-04-03T09:04:17;2.30;;;1.33;;
22388;SDS011;11362;48.102;11.620;2023-04-03T09:06:42;4.17;;;1.37;;
22388;SDS011;11362;48.102;11.620;2023-04-03T09:12:00;1.30;;;1.20;;
22388;SDS011;11362;48.102;11.620;2023-04-03T09:14:53;2.60;;;1.43;;
22388;SDS011;11362;48.102;11.620;2023-04-03T09:20:30;2.77;;;1.30;;
22388;SDS011;11362;48.102;11.620;2023-04-03T09:23:18;2.27;;;1.20;;
22388;SDS011;11362;48.102;11.620;2023-04-03T09:25:47;1.73;;;1.27;;
22388;SDS011;11362;48.102;11.620;2023-04-03T09:28:14;1.70;;;1.53;;
22388;SDS011;11362;48.102;11.620;2023-04-03T09:30:40;1.87;;;1.30;;
22388;SDS011;11362;48.102;11.620;2023-04-03T09:33:05;2.30;;;1.70;;
22388;SDS011;11362;48.102;11.620;2023-04-03T09:35:40;2.33;;;1.50;;
22388;SDS011;11362;48.102;11.620;2023-04-03T09:40:38;1.40;;;1.30;;
22388;SDS011;11362;48.102;11.620;2023-04-03T09:45:51;1.50;;;1.40;;
22388;SDS011;11362;48.102;11.620;2023-04-03T09:48:22;1.93;;;1.50;;
22388;SDS011;11362;48.102;11.620;2023-04-03T09:53:25;2.93;;;1.40;;
22388;SDS011;11362;48.102;11.620;2023-04-03T09:56:01;1.83;;;1.13;;
22388;SDS011;11362;48.102;11.620;2023-04-03T10:06:39;3.70;;;1.20;;
22388;SDS011;11362;48.102;11.620;2023-04-03T10:11:42;5.97;;;1.43;;
22388;SDS011;11362;48.102;11.620;2023-04-03T10:14:21;5.07;;;1.30;;
22388;SDS011;11362;48.102;11.620;2023-04-03T10:16:48;7.87;;;1.90;;
22388;SDS011;11362;48.102;11.620;2023-04-03T10:25:00;3.30;;;2.20;;
22388;SDS011;11362;48.102;11.620;2023-04-03T10:27:35;3.00;;;1.60;;
22388;SDS011;11362;48.102;11.620;2023-04-03T10:30:12;2.73;;;1.90;;
22388;SDS011;11362;48.102;11.620;2023-04-03T10:35:25;3.63;;;1.73;;
22388;SDS011;11362;48.102;11.620;2023-04-03T10:38:09;2.80;;;1.60;;
22388;SDS011;11362;48.102;11.620;2023-04-03T10:40:57;4.00;;;1.70;;
22388;SDS011;11362;48.102;11.620;2023-04-03T10:43:33;1.67;;;1.40;;
22388;SDS011;11362;48.102;11.620;2023-04-03T10:49:08;3.80;;;1.77;;
22388;SDS011;11362;48.102;11.620;2023-04-03T10:51:53;3.20;;;1.63;;
22388;SDS011;11362;48.102;11.620;2023-04-03T10:55:21;1.90;;;1.67;;
22388;SDS011;11362;48.102;11.620;2023-04-03T10:57:56;5.07;;;2.10;;
22388;SDS011;11362;48.102;11.620;2023-04-03T11:00:33;2.30;;;1.60;;
22388;SDS011;11362;48.102;11.620;2023-04-03T11:03:05;2.57;;;1.77;;
22388;SDS011;11362;48.102;11.620;2023-04-03T11:05:45;5.07;;;2.00;;
22388;SDS011;11362;48.102;11.620;2023-04-03T11:10:55;2.13;;;1.93;;
22388;SDS011;11362;48.102;11.620;2023-04-03T11:13:35;3.40;;;1.77;;
22388;SDS011;11362;48.102;11.620;2023-04-03T11:16:05;4.67;;;2.03;;
22388;SDS011;11362;48.102;11.620;2023-04-03T11:18:42;8.67;;;1.80;;
22388;SDS011;11362;48.102;11.620;2023-04-03T11:21:27;2.97;;;1.73;;
22388;SDS011;11362;48.102;11.620;2023-04-03T11:23:57;4.00;;;1.73;;
22388;SDS011;11362;48.102;11.620;2023-04-03T11:26:26;2.63;;;1.63;;
22388;SDS011;11362;48.102;11.620;2023-04-03T11:28:56;5.83;;;1.80;;
22388;SDS011;11362;48.102;11.620;2023-04-03T11:31:29;3.17;;;1.70;;
22388;SDS011;11362;48.102;11.620;2023-04-03T11:34:08;6.47;;;1.70;;
22388;SDS011;11362;48.102;11.620;2023-04-03T11:36:47;6.73;;;1.37;;
22388;SDS011;11362;48.102;11.620;2023-04-03T11:41:47;2.47;;;1.40;;
22388;SDS011;11362;48.102;11.620;2023-04-03T11:47:02;7.50;;;2.03;;
22388;SDS011;11362;48.102;11.620;2023-04-03T11:57:46;3.07;;;1.90;;
22388;SDS011;11362;48.102;11.620;2023-04-03T12:05:54;2.90;;;1.63;;
22388;SDS011;11362;48.102;11.620;2023-04-03T12:08:23;2.30;;;1.40;;
22388;SDS011;11362;48.102;11.620;2023-04-03T12:14:01;3.20;;;1.30;;
22388;SDS011;11362;48.102;11.620;2023-04-03T12:16:32;2.50;;;1.60;;
22388;SDS011;11362;48.102;11.620;2023-04-03T12:24:32;1.60;;;1.50;;
22388;SDS011;11362;48.102;11.620;2023-04-03T12:46:43;1.77;;;1.50;;
22388;SDS011;11362;48.102;11.620;2023-04-03T12:52:41;1.60;;;1.30;;
22388;SDS011;11362;48.102;11.620;2023-04-03T12:55:14;2.20;;;1.50;;
22388;SDS011;11362;48.102;11.620;2023-04-03T12:57:44;5.90;;;1.70;;
22388;SDS011;11362;48.102;11.620;2023-04-03T13:02:53;2.50;;;1.67;;
22388;SDS011;11362;48.102;11.620;2023-04-03T13:05:19;3.73;;;1.53;;
22388;SDS011;11362;48.102;11.620;2023-04-03T13:07:50;1.97;;;1.00;;
22388;SDS011;11362;48.102;11.620;2023-04-03T13:10:20;2.03;;;1.37;;
22388;SDS011;11362;48.102;11.620;2023-04-03T13:12:50;1.67;;;1.30;;
22388;SDS011;11362;48.102;11.620;2023-04-03T13:17:46;3.77;;;1.57;;
22388;SDS011;11362;48.102;11.620;2023-04-03T13:20:13;3.23;;;1.50;;
22388;SDS011;11362;48.102;11.620;2023-04-03T13:22:46;4.17;;;1.20;;
22388;SDS011;11362;48.102;11.620;2023-04-03T13:25:15;3.40;;;1.50;;
22388;SDS011;11362;48.102;11.620;2023-04-03T13:27:42;3.30;;;1.50;;
22388;SDS011;11362;48.102;11.620;2023-04-03T13:30:20;3.60;;;1.53;;
22388;SDS011;11362;48.102;11.620;2023-04-03T13:33:17;1.30;;;1.20;;
22388;SDS011;11362;48.102;11.620;2023-04-03T13:35:45;2.10;;;1.20;;
22388;SDS011;11362;48.102;11.620;2023-04-03T13:40:53;5.43;;;1.57;;
22388;SDS011;11362;48.102;11.620;2023-04-03T13:43:25;2.53;;;1.30;;
22388;SDS011;11362;48.102;11.620;2023-04-03T13:48:48;1.33;;;1.20;;
22388;SDS011;11362;48.102;11.620;2023-04-03T13:51:17;2.80;;;1.50;;
22388;SDS011;11362;48.102;11.620;2023-04-03T13:53:50;1.80;;;1.17;;
22388;SDS011;11362;48.102;11.620;2023-04-03T13:56:26;2.40;;;1.30;;
22388;SDS011;11362;48.102;11.620;2023-04-03T13:59:34;2.27;;;1.00;;
22388;SDS011;11362;48.102;11.620;2023-04-03T14:01:45;2.30;;;1.27;;
22388;SDS011;11362;48.102;11.620;2023-04-03T14:04:15;2.00;;;0.80;;
22388;SDS011;11362;48.102;11.620;2023-04-03T14:06:46;1.40;;;1.30;;
22388;SDS011;11362;48.102;11.620;2023-04-03T14:09:12;1.87;;;0.90;;
22388;SDS011;11362;48.102;11.620;2023-04-03T14:11:38;1.83;;;1.40;;
22388;SDS011;11362;48.102;11.620;2023-04-03T14:14:15;1.67;;;1.13;;
22388;SDS011;11362;48.102;11.620;2023-04-03T14:16:44;1.27;;;1.17;;
22388;SDS011;11362;48.102;11.620;2023-04-03T14:19:21;2.03;;;1.17;;
22388;SDS011;11362;48.102;11.620;2023-04-03T14:21:58;1.27;;;0.90;;
22388;SDS011;11362;48.102;11.620;2023-04-03T14:24:24;1.17;;;1.03;;
22388;SDS011;11362;48.102;11.620;2023-04-03T14:26:50;2.70;;;1.27;;
22388;SDS011;11362;48.102;11.620;2023-04-03T14:29:17;1.00;;;1.00;;
22388;SDS011;11362;48.102;11.620;2023-04-03T14:31:44;2.27;;;1.20;;
22388;SDS011;11362;48.102;11.620;2023-04-03T14:34:14;1.73;;;1.60;;
22388;SDS011;11362;48.102;11.620;2023-04-03T14:36:40;1.00;;;1.00;;
22388;SDS011;11362;48.102;11.620;2023-04-03T14:39:07;1.17;;;1.07;;
22388;SDS011;11362;48.102;11.620;2023-04-03T14:41:36;2.80;;;1.40;;
22388;SDS011;11362;48.102;11.620;2023-04-03T14:44:02;1.30;;;1.20;;
22388;SDS011;11362;48.102;11.620;2023-04-03T14:49:06;1.63;;;1.50;;
22388;SDS011;11362;48.102;11.620;2023-04-03T14:51:39;3.60;;;1.20;;
22388;SDS011;11362;48.102;11.620;2023-04-03T14:54:05;3.20;;;1.40;;
22388;SDS011;11362;48.102;11.620;2023-04-03T14:56:40;1.30;;;1.20;;
22388;SDS011;11362;48.102;11.620;2023-04-03T14:59:08;3.27;;;1.60;;
22388;SDS011;11362;48.102;11.620;2023-04-03T15:01:36;7.33;;;2.00;;
22388;SDS011;11362;48.102;11.620;2023-04-03T15:04:01;7.47;;;1.80;;
22388;SDS011;11362;48.102;11.620;2023-04-03T15:06:30;11.37;;;2.13;;
22388;SDS011;11362;48.102;11.620;2023-04-03T15:08:55;7.13;;;1.73;;
22388;SDS011;11362;48.102;11.620;2023-04-03T15:11:20;12.90;;;2.33;;
22388;SDS011;11362;48.102;11.620;2023-04-03T15:13:46;11.63;;;1.87;;
22388;SDS011;11362;48.102;11.620;2023-04-03T15:16:16;10.33;;;2.20;;
22388;SDS011;11362;48.102;11.620;2023-04-03T15:18:43;8.83;;;2.10;;
22388;SDS011;11362;48.102;11.620;2023-04-03T15:21:09;6.87;;;1.90;;
22388;SDS011;11362;48.102;11.620;2023-04-03T15:23:34;3.77;;;1.50;;
22388;SDS011;11362;48.102;11.620;2023-04-03T15:25:59;11.57;;;1.90;;
22388;SDS011;11362;48.102;11.620;2023-04-03T15:28:29;7.53;;;1.63;;
22388;SDS011;11362;48.102;11.620;2023-04-03T15:30:57;4.73;;;1.63;;
22388;SDS011;11362;48.102;11.620;2023-04-03T15:33:22;7.83;;;1.80;;
22388;SDS011;11362;48.102;11.620;2023-04-03T15:35:48;4.13;;;1.67;;
22388;SDS011;11362;48.102;11.620;2023-04-03T15:38:13;5.73;;;1.70;;
22388;SDS011;11362;48.102;11.620;2023-04-03T15:40:38;6.00;;;1.70;;
22388;SDS011;11362;48.102;11.620;2023-04-03T15:43:05;5.63;;;1.50;;
22388;SDS011;11362;48.102;11.620;2023-04-03T15:45:31;10.43;;;1.80;;
22388;SDS011;11362;48.102;11.620;2023-04-03T15:47:58;6.77;;;1.73;;
22388;SDS011;11362;48.102;11.620;2023-04-03T15:50:24;6.83;;;1.40;;
22388;SDS011;11362;48.102;11.620;2023-04-03T15:52:50;4.13;;;1.53;;
22388;SDS011;11362;48.102;11.620;2023-04-03T15:55:16;4.33;;;1.30;;
22388;SDS011;11362;48.102;11.620;2023-04-03T15:57:41;1.90;;;1.17;;
22388;SDS011;11362;48.102;11.620;2023-04-03T16:00:07;4.87;;;1.63;;
22388;SDS011;11362;48.102;11.620;2023-04-03T16:02:33;5.10;;;1.20;;
22388;SDS011;11362;48.102;11.620;2023-04-03T16:04:58;8.43;;;1.60;;
22388;SDS011;11362;48.102;11.620;2023-04-03T16:07:24;2.53;;;1.10;;
22388;SDS011;11362;48.102;11.620;2023-04-03T16:09:49;6.03;;;1.70;;
22388;SDS011;11362;48.102;11.620;2023-04-03T16:12:14;1.27;;;1.00;;
22388;SDS011;11362;48.102;11.620;2023-04-03T16:14:40;2.23;;;1.30;;
22388;SDS011;11362;48.102;11.620;2023-04-03T16:17:05;2.60;;;1.30;;
22388;SDS011;11362;48.102;11.620;2023-04-03T16:19:30;2.77;;;1.10;;
22388;SDS011;11362;48.102;11.620;2023-04-03T16:21:56;1.73;;;1.23;;
22388;SDS011;11362;48.102;11.620;2023-04-03T16:24:21;2.90;;;1.20;;
22388;SDS011;11362;48.102;11.620;2023-04-03T16:26:47;1.77;;;0.97;;